Terminal Aerodrome Forecast
Issued by NWS Bismarck, ND

Home | Current Version | Previous Version | Text Only | Print | Product List | Glossary Off
Versions: 1 2 3 4 5 6 7 8 9 10 11 12 13 14 15 16 17 18 19 20 21 22

000
FTUS43 KBIS 290203 AAA
TAFISN
TAF AMD
KISN 290203Z 2902/2924 27006KT 4SM FU BKN250
      TEMPO 2902/2906 2SM FU BKN030
     FM291600 18008KT 5SM FU FEW250
     FM291800 19012G19KT P6SM FEW250=

USA.gov is the U.S. government's official web portal to all federal, state and local government web resources and services.